sensor_id;sensor_type;location;lat;lon;timestamp;temperature;humidity
12426;DHT22;6277;49.824;9.562;2023-07-29T00:00:42;19.70;75.90
12426;DHT22;6277;49.824;9.562;2023-07-29T00:03:09;19.70;76.10
12426;DHT22;6277;49.824;9.562;2023-07-29T00:05:35;19.70;76.20
12426;DHT22;6277;49.824;9.562;2023-07-29T00:08:00;19.70;76.30
12426;DHT22;6277;49.824;9.562;2023-07-29T00:10:26;19.60;76.30
12426;DHT22;6277;49.824;9.562;2023-07-29T00:12:52;19.60;76.30
12426;DHT22;6277;49.824;9.562;2023-07-29T00:15:18;19.60;76.20
12426;DHT22;6277;49.824;9.562;2023-07-29T00:17:43;19.60;76.30
12426;DHT22;6277;49.824;9.562;2023-07-29T00:20:09;19.60;76.30
12426;DHT22;6277;49.824;9.562;2023-07-29T00:22:34;19.60;76.20
12426;DHT22;6277;49.824;9.562;2023-07-29T00:25:00;19.60;76.20
12426;DHT22;6277;49.824;9.562;2023-07-29T00:27:25;19.60;76.40
12426;DHT22;6277;49.824;9.562;2023-07-29T00:29:51;19.60;76.40
12426;DHT22;6277;49.824;9.562;2023-07-29T00:32:17;19.50;76.50
12426;DHT22;6277;49.824;9.562;2023-07-29T00:34:43;19.50;76.80
12426;DHT22;6277;49.824;9.562;2023-07-29T00:37:09;19.60;77.10
12426;DHT22;6277;49.824;9.562;2023-07-29T00:39:36;19.60;77.30
12426;DHT22;6277;49.824;9.562;2023-07-29T00:42:02;19.60;77.50
12426;DHT22;6277;49.824;9.562;2023-07-29T00:44:28;19.60;77.60
12426;DHT22;6277;49.824;9.562;2023-07-29T00:46:54;19.60;77.70
12426;DHT22;6277;49.824;9.562;2023-07-29T00:49:21;19.70;78.00
12426;DHT22;6277;49.824;9.562;2023-07-29T00:51:47;19.80;78.00
12426;DHT22;6277;49.824;9.562;2023-07-29T00:54:13;19.80;78.00
12426;DHT22;6277;49.824;9.562;2023-07-29T00:56:39;19.90;78.00
12426;DHT22;6277;49.824;9.562;2023-07-29T00:59:05;19.90;78.10
12426;DHT22;6277;49.824;9.562;2023-07-29T01:01:31;19.90;77.90
12426;DHT22;6277;49.824;9.562;2023-07-29T01:03:57;20.00;78.00
12426;DHT22;6277;49.824;9.562;2023-07-29T01:09:59;20.10;78.20
12426;DHT22;6277;49.824;9.562;2023-07-29T01:12:47;20.10;77.90
12426;DHT22;6277;49.824;9.562;2023-07-29T01:15:16;20.10;77.50
12426;DHT22;6277;49.824;9.562;2023-07-29T01:17:52;20.10;77.20
12426;DHT22;6277;49.824;9.562;2023-07-29T01:20:19;20.00;77.20
12426;DHT22;6277;49.824;9.562;2023-07-29T01:22:46;20.00;76.90
12426;DHT22;6277;49.824;9.562;2023-07-29T01:25:12;20.00;77.00
12426;DHT22;6277;49.824;9.562;2023-07-29T01:27:38;20.00;76.90
12426;DHT22;6277;49.824;9.562;2023-07-29T01:30:05;19.90;76.90
12426;DHT22;6277;49.824;9.562;2023-07-29T01:35:17;19.90;77.10
12426;DHT22;6277;49.824;9.562;2023-07-29T01:37:48;19.90;77.90
12426;DHT22;6277;49.824;9.562;2023-07-29T01:40:15;19.90;77.50
12426;DHT22;6277;49.824;9.562;2023-07-29T01:42:41;19.90;77.60
12426;DHT22;6277;49.824;9.562;2023-07-29T01:45:07;19.90;77.60
12426;DHT22;6277;49.824;9.562;2023-07-29T01:47:32;19.90;77.70
12426;DHT22;6277;49.824;9.562;2023-07-29T01:49:58;19.90;77.70
12426;DHT22;6277;49.824;9.562;2023-07-29T01:52:23;19.90;77.80
12426;DHT22;6277;49.824;9.562;2023-07-29T01:54:49;19.90;77.90
12426;DHT22;6277;49.824;9.562;2023-07-29T01:57:14;19.90;78.00
12426;DHT22;6277;49.824;9.562;2023-07-29T01:59:40;20.00;78.10
12426;DHT22;6277;49.824;9.562;2023-07-29T02:02:06;20.00;78.20
12426;DHT22;6277;49.824;9.562;2023-07-29T02:04:31;20.00;78.30
12426;DHT22;6277;49.824;9.562;2023-07-29T02:06:57;20.10;78.30
12426;DHT22;6277;49.824;9.562;2023-07-29T02:09:22;20.10;78.40
12426;DHT22;6277;49.824;9.562;2023-07-29T02:11:48;20.10;78.50
12426;DHT22;6277;49.824;9.562;2023-07-29T02:14:13;20.10;78.60
12426;DHT22;6277;49.824;9.562;2023-07-29T02:16:39;20.20;78.80
12426;DHT22;6277;49.824;9.562;2023-07-29T02:19:04;20.20;78.80
12426;DHT22;6277;49.824;9.562;2023-07-29T02:21:30;20.20;78.90
12426;DHT22;6277;49.824;9.562;2023-07-29T02:23:55;20.30;78.90
12426;DHT22;6277;49.824;9.562;2023-07-29T02:26:22;20.30;78.90
12426;DHT22;6277;49.824;9.562;2023-07-29T02:28:47;20.40;79.10
12426;DHT22;6277;49.824;9.562;2023-07-29T02:31:22;20.40;79.00
12426;DHT22;6277;49.824;9.562;2023-07-29T02:33:48;20.40;79.10
12426;DHT22;6277;49.824;9.562;2023-07-29T02:36:15;20.50;79.00
12426;DHT22;6277;49.824;9.562;2023-07-29T02:38:41;20.50;79.00
12426;DHT22;6277;49.824;9.562;2023-07-29T02:41:08;20.60;79.10
12426;DHT22;6277;49.824;9.562;2023-07-29T02:43:37;20.60;79.10
12426;DHT22;6277;49.824;9.562;2023-07-29T02:46:04;20.60;79.00
12426;DHT22;6277;49.824;9.562;2023-07-29T02:48:29;20.70;79.20
12426;DHT22;6277;49.824;9.562;2023-07-29T02:50:56;20.70;79.10
12426;DHT22;6277;49.824;9.562;2023-07-29T02:53:24;20.70;79.10
12426;DHT22;6277;49.824;9.562;2023-07-29T02:55:50;20.80;79.40
12426;DHT22;6277;49.824;9.562;2023-07-29T02:58:15;20.80;79.20
12426;DHT22;6277;49.824;9.562;2023-07-29T03:00:41;20.80;79.20
12426;DHT22;6277;49.824;9.562;2023-07-29T03:03:08;20.80;79.20
12426;DHT22;6277;49.824;9.562;2023-07-29T03:05:33;20.80;79.20
12426;DHT22;6277;49.824;9.562;2023-07-29T03:07:59;20.90;79.20
12426;DHT22;6277;49.824;9.562;2023-07-29T03:10:25;20.90;79.10
12426;DHT22;6277;49.824;9.562;2023-07-29T03:12:50;20.90;79.10
12426;DHT22;6277;49.824;9.562;2023-07-29T03:15:16;20.90;79.10
12426;DHT22;6277;49.824;9.562;2023-07-29T03:17:42;20.90;79.10
12426;DHT22;6277;49.824;9.562;2023-07-29T03:20:08;21.00;79.90
12426;DHT22;6277;49.824;9.562;2023-07-29T03:22:33;21.00;79.20
12426;DHT22;6277;49.824;9.562;2023-07-29T03:24:59;21.00;79.80
12426;DHT22;6277;49.824;9.562;2023-07-29T03:27:24;21.00;79.90
12426;DHT22;6277;49.824;9.562;2023-07-29T03:29:50;21.00;79.20
12426;DHT22;6277;49.824;9.562;2023-07-29T03:32:15;21.00;79.20
12426;DHT22;6277;49.824;9.562;2023-07-29T03:34:41;21.00;79.20
12426;DHT22;6277;49.824;9.562;2023-07-29T03:37:06;21.00;79.20
12426;DHT22;6277;49.824;9.562;2023-07-29T03:39:32;21.00;79.20
12426;DHT22;6277;49.824;9.562;2023-07-29T03:41:58;21.10;79.10
12426;DHT22;6277;49.824;9.562;2023-07-29T03:44:23;21.10;79.10
12426;DHT22;6277;49.824;9.562;2023-07-29T03:46:49;21.10;79.10
12426;DHT22;6277;49.824;9.562;2023-07-29T03:49:15;21.00;79.00
12426;DHT22;6277;49.824;9.562;2023-07-29T03:51:40;21.10;79.10
12426;DHT22;6277;49.824;9.562;2023-07-29T03:54:06;21.00;79.10
12426;DHT22;6277;49.824;9.562;2023-07-29T03:56:32;21.00;79.20
12426;DHT22;6277;49.824;9.562;2023-07-29T03:59:03;21.10;79.20
12426;DHT22;6277;49.824;9.562;2023-07-29T04:01:29;21.10;79.30
12426;DHT22;6277;49.824;9.562;2023-07-29T04:03:54;21.10;79.70
12426;DHT22;6277;49.824;9.562;2023-07-29T04:06:20;21.10;79.10
12426;DHT22;6277;49.824;9.562;2023-07-29T04:08:46;21.10;79.20
12426;DHT22;6277;49.824;9.562;2023-07-29T04:11:11;21.00;79.10
12426;DHT22;6277;49.824;9.562;2023-07-29T04:13:37;21.00;79.00
12426;DHT22;6277;49.824;9.562;2023-07-29T04:16:04;21.00;79.00
12426;DHT22;6277;49.824;9.562;2023-07-29T04:18:29;21.00;78.90
12426;DHT22;6277;49.824;9.562;2023-07-29T04:20:55;21.00;78.80
12426;DHT22;6277;49.824;9.562;2023-07-29T04:23:20;21.00;78.80
12426;DHT22;6277;49.824;9.562;2023-07-29T04:25:46;21.00;78.80
12426;DHT22;6277;49.824;9.562;2023-07-29T04:28:12;21.00;78.80
12426;DHT22;6277;49.824;9.562;2023-07-29T04:30:37;20.90;78.80
12426;DHT22;6277;49.824;9.562;2023-07-29T04:33:03;20.90;78.90
12426;DHT22;6277;49.824;9.562;2023-07-29T04:35:28;20.90;78.90
12426;DHT22;6277;49.824;9.562;2023-07-29T04:37:54;20.90;79.00
12426;DHT22;6277;49.824;9.562;2023-07-29T04:40:20;20.90;79.10
12426;DHT22;6277;49.824;9.562;2023-07-29T04:42:45;20.90;79.10
12426;DHT22;6277;49.824;9.562;2023-07-29T04:45:11;20.90;79.20
12426;DHT22;6277;49.824;9.562;2023-07-29T04:47:36;20.90;79.30
12426;DHT22;6277;49.824;9.562;2023-07-29T04:50:02;20.90;79.40
12426;DHT22;6277;49.824;9.562;2023-07-29T04:52:28;20.90;79.40
12426;DHT22;6277;49.824;9.562;2023-07-29T04:54:53;20.90;79.50
12426;DHT22;6277;49.824;9.562;2023-07-29T04:57:19;20.90;79.60
12426;DHT22;6277;49.824;9.562;2023-07-29T04:59:44;21.00;79.80
12426;DHT22;6277;49.824;9.562;2023-07-29T05:02:10;20.90;79.70
12426;DHT22;6277;49.824;9.562;2023-07-29T05:04:35;21.00;79.80
12426;DHT22;6277;49.824;9.562;2023-07-29T05:07:01;21.00;80.00
12426;DHT22;6277;49.824;9.562;2023-07-29T05:09:26;21.10;80.00
12426;DHT22;6277;49.824;9.562;2023-07-29T05:11:52;21.10;80.00
12426;DHT22;6277;49.824;9.562;2023-07-29T05:14:17;21.10;80.00
12426;DHT22;6277;49.824;9.562;2023-07-29T05:16:44;21.20;80.20
12426;DHT22;6277;49.824;9.562;2023-07-29T05:19:09;21.30;80.30
12426;DHT22;6277;49.824;9.562;2023-07-29T05:21:36;21.30;80.20
12426;DHT22;6277;49.824;9.562;2023-07-29T05:24:02;21.40;80.20
12426;DHT22;6277;49.824;9.562;2023-07-29T05:26:28;21.40;80.10
12426;DHT22;6277;49.824;9.562;2023-07-29T05:28:53;21.50;80.20
12426;DHT22;6277;49.824;9.562;2023-07-29T05:31:19;21.50;80.20
12426;DHT22;6277;49.824;9.562;2023-07-29T05:33:45;21.60;80.20
12426;DHT22;6277;49.824;9.562;2023-07-29T05:36:10;21.60;80.20
12426;DHT22;6277;49.824;9.562;2023-07-29T05:38:36;21.70;80.30
12426;DHT22;6277;49.824;9.562;2023-07-29T05:41:01;21.70;80.30
12426;DHT22;6277;49.824;9.562;2023-07-29T05:43:27;21.80;80.30
12426;DHT22;6277;49.824;9.562;2023-07-29T05:45:53;21.90;80.40
12426;DHT22;6277;49.824;9.562;2023-07-29T05:48:19;22.00;80.50
12426;DHT22;6277;49.824;9.562;2023-07-29T05:50:45;22.10;80.50
12426;DHT22;6277;49.824;9.562;2023-07-29T05:53:11;22.10;80.30
12426;DHT22;6277;49.824;9.562;2023-07-29T05:55:36;22.20;80.20
12426;DHT22;6277;49.824;9.562;2023-07-29T05:58:02;22.30;80.10
12426;DHT22;6277;49.824;9.562;2023-07-29T06:00:28;22.40;79.90
12426;DHT22;6277;49.824;9.562;2023-07-29T06:02:53;22.40;80.20
12426;DHT22;6277;49.824;9.562;2023-07-29T06:05:19;22.40;79.40
12426;DHT22;6277;49.824;9.562;2023-07-29T06:07:44;22.50;79.30
12426;DHT22;6277;49.824;9.562;2023-07-29T06:10:15;22.50;79.10
12426;DHT22;6277;49.824;9.562;2023-07-29T06:12:43;22.50;78.90
12426;DHT22;6277;49.824;9.562;2023-07-29T06:15:09;22.50;78.90
12426;DHT22;6277;49.824;9.562;2023-07-29T06:17:35;22.60;79.00
12426;DHT22;6277;49.824;9.562;2023-07-29T06:20:01;22.60;79.00
12426;DHT22;6277;49.824;9.562;2023-07-29T06:22:26;22.60;79.00
12426;DHT22;6277;49.824;9.562;2023-07-29T06:24:52;22.60;78.80
12426;DHT22;6277;49.824;9.562;2023-07-29T06:27:17;22.60;78.80
12426;DHT22;6277;49.824;9.562;2023-07-29T06:29:43;22.60;78.60
12426;DHT22;6277;49.824;9.562;2023-07-29T06:32:08;22.60;78.50
12426;DHT22;6277;49.824;9.562;2023-07-29T06:34:34;22.70;78.50
12426;DHT22;6277;49.824;9.562;2023-07-29T06:37:00;22.70;78.40
12426;DHT22;6277;49.824;9.562;2023-07-29T06:39:25;22.70;78.30
12426;DHT22;6277;49.824;9.562;2023-07-29T06:41:51;22.70;78.30
12426;DHT22;6277;49.824;9.562;2023-07-29T06:44:16;22.70;78.30
12426;DHT22;6277;49.824;9.562;2023-07-29T06:46:42;22.60;78.30
12426;DHT22;6277;49.824;9.562;2023-07-29T06:49:07;22.60;78.20
12426;DHT22;6277;49.824;9.562;2023-07-29T06:51:33;22.60;78.10
12426;DHT22;6277;49.824;9.562;2023-07-29T06:54:03;22.60;78.20
12426;DHT22;6277;49.824;9.562;2023-07-29T06:56:29;22.60;78.20
12426;DHT22;6277;49.824;9.562;2023-07-29T06:58:54;22.60;78.20
12426;DHT22;6277;49.824;9.562;2023-07-29T07:01:20;22.60;78.00
12426;DHT22;6277;49.824;9.562;2023-07-29T07:03:45;22.60;78.00
12426;DHT22;6277;49.824;9.562;2023-07-29T07:06:11;22.60;78.10
12426;DHT22;6277;49.824;9.562;2023-07-29T07:08:36;22.60;78.20
12426;DHT22;6277;49.824;9.562;2023-07-29T07:11:02;22.60;78.40
12426;DHT22;6277;49.824;9.562;2023-07-29T07:13:28;22.70;78.90
12426;DHT22;6277;49.824;9.562;2023-07-29T07:15:56;22.70;79.00
12426;DHT22;6277;49.824;9.562;2023-07-29T07:18:22;22.80;79.00
12426;DHT22;6277;49.824;9.562;2023-07-29T07:20:51;22.90;79.10
12426;DHT22;6277;49.824;9.562;2023-07-29T07:23:17;23.00;78.90
12426;DHT22;6277;49.824;9.562;2023-07-29T07:25:43;23.10;79.10
12426;DHT22;6277;49.824;9.562;2023-07-29T07:28:10;23.20;79.00
12426;DHT22;6277;49.824;9.562;2023-07-29T07:30:39;23.30;78.90
12426;DHT22;6277;49.824;9.562;2023-07-29T07:33:04;23.30;78.70
12426;DHT22;6277;49.824;9.562;2023-07-29T07:35:30;23.40;78.50
12426;DHT22;6277;49.824;9.562;2023-07-29T07:37:55;23.50;78.60
12426;DHT22;6277;49.824;9.562;2023-07-29T07:40:21;23.60;78.80
12426;DHT22;6277;49.824;9.562;2023-07-29T07:42:46;23.70;78.80
12426;DHT22;6277;49.824;9.562;2023-07-29T07:45:12;23.90;78.60
12426;DHT22;6277;49.824;9.562;2023-07-29T07:47:37;24.00;78.20
12426;DHT22;6277;49.824;9.562;2023-07-29T07:50:03;24.10;77.70
12426;DHT22;6277;49.824;9.562;2023-07-29T07:52:29;24.10;77.00
12426;DHT22;6277;49.824;9.562;2023-07-29T07:54:54;24.20;76.50
12426;DHT22;6277;49.824;9.562;2023-07-29T07:57:21;24.10;76.10
12426;DHT22;6277;49.824;9.562;2023-07-29T07:59:47;24.10;75.80
12426;DHT22;6277;49.824;9.562;2023-07-29T08:02:12;23.90;75.60
12426;DHT22;6277;49.824;9.562;2023-07-29T08:04:38;23.90;75.90
12426;DHT22;6277;49.824;9.562;2023-07-29T08:07:04;23.70;75.10
12426;DHT22;6277;49.824;9.562;2023-07-29T08:09:29;23.60;75.40
12426;DHT22;6277;49.824;9.562;2023-07-29T08:11:55;23.50;75.60
12426;DHT22;6277;49.824;9.562;2023-07-29T08:14:21;23.30;75.50
12426;DHT22;6277;49.824;9.562;2023-07-29T08:16:46;23.10;75.40
12426;DHT22;6277;49.824;9.562;2023-07-29T08:19:12;22.80;75.70
12426;DHT22;6277;49.824;9.562;2023-07-29T08:21:37;22.60;76.40
12426;DHT22;6277;49.824;9.562;2023-07-29T08:24:03;22.40;77.10
12426;DHT22;6277;49.824;9.562;2023-07-29T08:26:29;22.30;77.80
12426;DHT22;6277;49.824;9.562;2023-07-29T08:28:54;22.10;78.60
12426;DHT22;6277;49.824;9.562;2023-07-29T08:31:20;22.00;79.80
12426;DHT22;6277;49.824;9.562;2023-07-29T08:33:46;22.00;80.80
12426;DHT22;6277;49.824;9.562;2023-07-29T08:36:11;22.00;81.50
12426;DHT22;6277;49.824;9.562;2023-07-29T08:38:37;22.00;81.90
12426;DHT22;6277;49.824;9.562;2023-07-29T08:43:34;22.10;81.40
12426;DHT22;6277;49.824;9.562;2023-07-29T08:46:02;22.00;81.00
12426;DHT22;6277;49.824;9.562;2023-07-29T08:48:41;21.90;80.90
12426;DHT22;6277;49.824;9.562;2023-07-29T08:51:11;21.90;80.70
12426;DHT22;6277;49.824;9.562;2023-07-29T08:53:38;21.80;80.70
12426;DHT22;6277;49.824;9.562;2023-07-29T08:56:04;21.70;81.40
12426;DHT22;6277;49.824;9.562;2023-07-29T08:58:31;21.60;81.00
12426;DHT22;6277;49.824;9.562;2023-07-29T09:00:57;21.50;81.30
12426;DHT22;6277;49.824;9.562;2023-07-29T09:03:22;21.40;81.60
12426;DHT22;6277;49.824;9.562;2023-07-29T09:05:48;21.40;82.00
12426;DHT22;6277;49.824;9.562;2023-07-29T09:08:14;21.40;82.60
12426;DHT22;6277;49.824;9.562;2023-07-29T09:10:40;21.40;83.10
12426;DHT22;6277;49.824;9.562;2023-07-29T09:13:07;21.40;83.70
12426;DHT22;6277;49.824;9.562;2023-07-29T09:15:34;21.50;84.00
12426;DHT22;6277;49.824;9.562;2023-07-29T09:18:09;21.60;84.50
12426;DHT22;6277;49.824;9.562;2023-07-29T09:20:35;21.70;84.70
12426;DHT22;6277;49.824;9.562;2023-07-29T09:23:01;21.90;84.90
12426;DHT22;6277;49.824;9.562;2023-07-29T09:25:28;22.00;84.90
12426;DHT22;6277;49.824;9.562;2023-07-29T09:28:01;22.10;84.80
12426;DHT22;6277;49.824;9.562;2023-07-29T09:30:27;22.30;84.30
12426;DHT22;6277;49.824;9.562;2023-07-29T09:32:57;22.30;84.30
12426;DHT22;6277;49.824;9.562;2023-07-29T09:35:23;22.50;84.20
12426;DHT22;6277;49.824;9.562;2023-07-29T09:37:51;22.50;83.10
12426;DHT22;6277;49.824;9.562;2023-07-29T09:40:17;22.50;82.30
12426;DHT22;6277;49.824;9.562;2023-07-29T09:42:51;22.50;82.10
12426;DHT22;6277;49.824;9.562;2023-07-29T09:45:24;22.50;81.50
12426;DHT22;6277;49.824;9.562;2023-07-29T09:47:51;22.40;81.60
12426;DHT22;6277;49.824;9.562;2023-07-29T09:50:16;22.40;81.70
12426;DHT22;6277;49.824;9.562;2023-07-29T09:52:43;22.30;81.60
12426;DHT22;6277;49.824;9.562;2023-07-29T09:55:13;22.30;81.80
12426;DHT22;6277;49.824;9.562;2023-07-29T09:57:40;22.30;82.00
12426;DHT22;6277;49.824;9.562;2023-07-29T10:00:06;22.30;82.50
12426;DHT22;6277;49.824;9.562;2023-07-29T10:02:40;22.30;82.80
12426;DHT22;6277;49.824;9.562;2023-07-29T10:05:07;22.40;83.10
12426;DHT22;6277;49.824;9.562;2023-07-29T10:07:34;22.40;83.20
12426;DHT22;6277;49.824;9.562;2023-07-29T10:10:02;22.50;83.30
12426;DHT22;6277;49.824;9.562;2023-07-29T10:12:30;22.60;83.40
12426;DHT22;6277;49.824;9.562;2023-07-29T10:14:59;22.70;83.60
12426;DHT22;6277;49.824;9.562;2023-07-29T10:17:26;22.80;83.70
12426;DHT22;6277;49.824;9.562;2023-07-29T10:19:52;22.90;83.90
12426;DHT22;6277;49.824;9.562;2023-07-29T10:22:20;23.10;83.70
12426;DHT22;6277;49.824;9.562;2023-07-29T10:24:48;23.20;83.50
12426;DHT22;6277;49.824;9.562;2023-07-29T10:27:16;23.30;83.80
12426;DHT22;6277;49.824;9.562;2023-07-29T10:29:44;23.50;83.80
12426;DHT22;6277;49.824;9.562;2023-07-29T10:32:11;23.60;83.60
12426;DHT22;6277;49.824;9.562;2023-07-29T10:34:37;23.80;83.90
12426;DHT22;6277;49.824;9.562;2023-07-29T10:37:04;24.00;84.10
12426;DHT22;6277;49.824;9.562;2023-07-29T10:39:40;24.20;84.40
12426;DHT22;6277;49.824;9.562;2023-07-29T10:42:06;24.50;83.30
12426;DHT22;6277;49.824;9.562;2023-07-29T10:47:19;25.00;82.60
12426;DHT22;6277;49.824;9.562;2023-07-29T10:49:47;25.30;82.10
12426;DHT22;6277;49.824;9.562;2023-07-29T10:52:14;25.40;81.80
12426;DHT22;6277;49.824;9.562;2023-07-29T10:54:47;25.60;81.10
12426;DHT22;6277;49.824;9.562;2023-07-29T10:57:30;25.70;80.00
12426;DHT22;6277;49.824;9.562;2023-07-29T10:59:57;25.80;78.90
12426;DHT22;6277;49.824;9.562;2023-07-29T11:02:31;25.90;79.60
12426;DHT22;6277;49.824;9.562;2023-07-29T11:04:58;26.00;77.70
12426;DHT22;6277;49.824;9.562;2023-07-29T11:07:25;26.00;77.60
12426;DHT22;6277;49.824;9.562;2023-07-29T11:09:55;26.00;77.50
12426;DHT22;6277;49.824;9.562;2023-07-29T11:15:13;26.10;75.90
12426;DHT22;6277;49.824;9.562;2023-07-29T11:17:41;26.10;75.40
12426;DHT22;6277;49.824;9.562;2023-07-29T11:20:07;26.10;76.20
12426;DHT22;6277;49.824;9.562;2023-07-29T11:22:34;26.20;75.90
12426;DHT22;6277;49.824;9.562;2023-07-29T11:24:59;26.30;75.30
12426;DHT22;6277;49.824;9.562;2023-07-29T11:27:25;26.30;75.00
12426;DHT22;6277;49.824;9.562;2023-07-29T11:30:03;26.40;74.90
12426;DHT22;6277;49.824;9.562;2023-07-29T11:32:31;26.50;74.00
12426;DHT22;6277;49.824;9.562;2023-07-29T11:35:01;26.60;74.70
12426;DHT22;6277;49.824;9.562;2023-07-29T11:37:26;26.70;74.60
12426;DHT22;6277;49.824;9.562;2023-07-29T11:39:52;26.80;74.10
12426;DHT22;6277;49.824;9.562;2023-07-29T11:42:17;26.90;73.40
12426;DHT22;6277;49.824;9.562;2023-07-29T11:44:43;27.00;73.40
12426;DHT22;6277;49.824;9.562;2023-07-29T11:47:12;27.00;72.70
12426;DHT22;6277;49.824;9.562;2023-07-29T11:49:40;27.10;71.80
12426;DHT22;6277;49.824;9.562;2023-07-29T11:52:08;27.20;71.50
12426;DHT22;6277;49.824;9.562;2023-07-29T11:54:37;27.30;71.50
12426;DHT22;6277;49.824;9.562;2023-07-29T11:57:08;27.40;70.70
12426;DHT22;6277;49.824;9.562;2023-07-29T11:59:35;27.50;69.60
12426;DHT22;6277;49.824;9.562;2023-07-29T12:02:03;27.50;69.70
12426;DHT22;6277;49.824;9.562;2023-07-29T12:04:31;27.60;69.80
12426;DHT22;6277;49.824;9.562;2023-07-29T12:06:57;27.60;69.90
12426;DHT22;6277;49.824;9.562;2023-07-29T12:09:23;27.80;70.20
12426;DHT22;6277;49.824;9.562;2023-07-29T12:11:49;27.90;70.10
12426;DHT22;6277;49.824;9.562;2023-07-29T12:14:16;28.10;69.30
12426;DHT22;6277;49.824;9.562;2023-07-29T12:16:43;28.20;68.00
12426;DHT22;6277;49.824;9.562;2023-07-29T12:19:11;28.40;67.10
12426;DHT22;6277;49.824;9.562;2023-07-29T12:21:37;28.40;66.20
12426;DHT22;6277;49.824;9.562;2023-07-29T12:24:03;28.50;66.60
12426;DHT22;6277;49.824;9.562;2023-07-29T12:26:29;28.50;66.50
12426;DHT22;6277;49.824;9.562;2023-07-29T12:28:55;28.70;66.50
12426;DHT22;6277;49.824;9.562;2023-07-29T12:31:22;28.80;65.90
12426;DHT22;6277;49.824;9.562;2023-07-29T12:33:56;28.90;65.50
12426;DHT22;6277;49.824;9.562;2023-07-29T12:36:21;29.00;64.70
12426;DHT22;6277;49.824;9.562;2023-07-29T12:38:47;29.20;65.20
12426;DHT22;6277;49.824;9.562;2023-07-29T12:41:12;29.30;65.30
12426;DHT22;6277;49.824;9.562;2023-07-29T12:43:39;29.50;65.10
12426;DHT22;6277;49.824;9.562;2023-07-29T12:46:04;29.60;64.70
12426;DHT22;6277;49.824;9.562;2023-07-29T12:48:30;29.80;64.50
12426;DHT22;6277;49.824;9.562;2023-07-29T12:50:55;29.90;64.20
12426;DHT22;6277;49.824;9.562;2023-07-29T12:53:21;30.10;63.90
12426;DHT22;6277;49.824;9.562;2023-07-29T12:55:46;30.10;63.90
12426;DHT22;6277;49.824;9.562;2023-07-29T12:58:12;30.30;63.50
12426;DHT22;6277;49.824;9.562;2023-07-29T13:00:37;30.30;63.00
12426;DHT22;6277;49.824;9.562;2023-07-29T13:03:03;30.40;63.00
12426;DHT22;6277;49.824;9.562;2023-07-29T13:05:31;30.50;62.60
12426;DHT22;6277;49.824;9.562;2023-07-29T13:07:56;30.60;62.00
12426;DHT22;6277;49.824;9.562;2023-07-29T13:10:22;30.60;61.20
12426;DHT22;6277;49.824;9.562;2023-07-29T13:12:47;30.50;60.40
12426;DHT22;6277;49.824;9.562;2023-07-29T13:15:14;30.50;60.00
12426;DHT22;6277;49.824;9.562;2023-07-29T13:17:39;30.40;60.00
12426;DHT22;6277;49.824;9.562;2023-07-29T13:20:06;30.30;59.80
12426;DHT22;6277;49.824;9.562;2023-07-29T13:22:31;30.20;59.50
12426;DHT22;6277;49.824;9.562;2023-07-29T13:24:57;30.10;59.30
12426;DHT22;6277;49.824;9.562;2023-07-29T13:27:23;30.00;58.90
12426;DHT22;6277;49.824;9.562;2023-07-29T13:29:49;29.90;58.40
12426;DHT22;6277;49.824;9.562;2023-07-29T13:32:15;29.80;58.10
12426;DHT22;6277;49.824;9.562;2023-07-29T13:34:40;29.70;58.20
12426;DHT22;6277;49.824;9.562;2023-07-29T13:37:06;29.60;58.30
12426;DHT22;6277;49.824;9.562;2023-07-29T13:39:31;29.50;58.90
12426;DHT22;6277;49.824;9.562;2023-07-29T13:41:57;29.50;59.20
12426;DHT22;6277;49.824;9.562;2023-07-29T13:44:22;29.50;59.20
12426;DHT22;6277;49.824;9.562;2023-07-29T13:46:48;29.60;59.10
12426;DHT22;6277;49.824;9.562;2023-07-29T13:49:13;29.60;58.90
12426;DHT22;6277;49.824;9.562;2023-07-29T13:51:39;29.60;58.70
12426;DHT22;6277;49.824;9.562;2023-07-29T13:54:04;29.60;58.50
12426;DHT22;6277;49.824;9.562;2023-07-29T13:56:30;29.60;58.70
12426;DHT22;6277;49.824;9.562;2023-07-29T13:58:56;29.60;58.70
12426;DHT22;6277;49.824;9.562;2023-07-29T14:01:21;29.70;58.10
12426;DHT22;6277;49.824;9.562;2023-07-29T14:03:47;29.80;57.70
12426;DHT22;6277;49.824;9.562;2023-07-29T14:06:12;29.80;57.10
12426;DHT22;6277;49.824;9.562;2023-07-29T14:08:38;29.80;56.90
12426;DHT22;6277;49.824;9.562;2023-07-29T14:11:06;29.70;56.00
12426;DHT22;6277;49.824;9.562;2023-07-29T14:13:31;29.60;55.80
12426;DHT22;6277;49.824;9.562;2023-07-29T14:15:57;29.40;56.50
12426;DHT22;6277;49.824;9.562;2023-07-29T14:18:22;29.30;57.20
12426;DHT22;6277;49.824;9.562;2023-07-29T14:20:48;29.40;57.30
12426;DHT22;6277;49.824;9.562;2023-07-29T14:23:14;29.50;57.20
12426;DHT22;6277;49.824;9.562;2023-07-29T14:25:40;29.60;56.70
12426;DHT22;6277;49.824;9.562;2023-07-29T14:28:05;29.70;56.40
12426;DHT22;6277;49.824;9.562;2023-07-29T14:30:31;29.80;55.50
12426;DHT22;6277;49.824;9.562;2023-07-29T14:32:57;29.90;55.10
12426;DHT22;6277;49.824;9.562;2023-07-29T14:35:22;30.00;54.30
12426;DHT22;6277;49.824;9.562;2023-07-29T14:37:48;29.90;54.00
12426;DHT22;6277;49.824;9.562;2023-07-29T14:40:13;29.90;53.90
12426;DHT22;6277;49.824;9.562;2023-07-29T14:42:39;29.80;53.90
12426;DHT22;6277;49.824;9.562;2023-07-29T14:45:05;29.70;53.60
12426;DHT22;6277;49.824;9.562;2023-07-29T14:47:30;29.60;53.00
12426;DHT22;6277;49.824;9.562;2023-07-29T14:50:00;29.50;52.90
12426;DHT22;6277;49.824;9.562;2023-07-29T14:52:25;29.30;52.80
12426;DHT22;6277;49.824;9.562;2023-07-29T14:54:51;29.20;52.70
12426;DHT22;6277;49.824;9.562;2023-07-29T14:57:17;29.10;52.50
12426;DHT22;6277;49.824;9.562;2023-07-29T14:59:42;29.00;52.20
12426;DHT22;6277;49.824;9.562;2023-07-29T15:02:08;28.90;52.60
12426;DHT22;6277;49.824;9.562;2023-07-29T15:04:34;28.80;52.70
12426;DHT22;6277;49.824;9.562;2023-07-29T15:06:59;28.80;52.80
12426;DHT22;6277;49.824;9.562;2023-07-29T15:09:25;28.80;52.60
12426;DHT22;6277;49.824;9.562;2023-07-29T15:11:51;28.80;52.60
12426;DHT22;6277;49.824;9.562;2023-07-29T15:14:16;28.80;52.60
12426;DHT22;6277;49.824;9.562;2023-07-29T15:16:42;28.90;52.30
12426;DHT22;6277;49.824;9.562;2023-07-29T15:19:07;28.90;52.00
12426;DHT22;6277;49.824;9.562;2023-07-29T15:21:33;28.90;51.50
12426;DHT22;6277;49.824;9.562;2023-07-29T15:23:59;28.90;51.60
12426;DHT22;6277;49.824;9.562;2023-07-29T15:26:24;28.80;51.20
12426;DHT22;6277;49.824;9.562;2023-07-29T15:28:50;28.80;51.00
12426;DHT22;6277;49.824;9.562;2023-07-29T15:31:15;28.80;51.30
12426;DHT22;6277;49.824;9.562;2023-07-29T15:33:41;28.70;50.90
12426;DHT22;6277;49.824;9.562;2023-07-29T15:36:06;28.70;50.60
12426;DHT22;6277;49.824;9.562;2023-07-29T15:38:32;28.70;50.50
12426;DHT22;6277;49.824;9.562;2023-07-29T15:40:58;28.60;50.70
12426;DHT22;6277;49.824;9.562;2023-07-29T15:43:24;28.60;50.60
12426;DHT22;6277;49.824;9.562;2023-07-29T15:45:50;28.60;50.60
12426;DHT22;6277;49.824;9.562;2023-07-29T15:48:15;28.60;50.30
12426;DHT22;6277;49.824;9.562;2023-07-29T15:50:41;28.70;50.10
12426;DHT22;6277;49.824;9.562;2023-07-29T15:53:08;28.70;50.10